sensor_id;sensor_type;location;lat;lon;timestamp;P1;durP1;ratioP1;P2;durP2;ratioP2
59788;SDS011;47353;51.614;5.530;2022-10-17T00:00:39;14.20;;;10.18;;
59788;SDS011;47353;51.614;5.530;2022-10-17T00:03:05;11.48;;;9.85;;
59788;SDS011;47353;51.614;5.530;2022-10-17T00:05:30;14.20;;;9.80;;
59788;SDS011;47353;51.614;5.530;2022-10-17T00:07:56;14.15;;;10.05;;
59788;SDS011;47353;51.614;5.530;2022-10-17T00:10:21;11.02;;;9.50;;
59788;SDS011;47353;51.614;5.530;2022-10-17T00:12:47;11.57;;;9.63;;
59788;SDS011;47353;51.614;5.530;2022-10-17T00:15:15;13.02;;;9.98;;
59788;SDS011;47353;51.614;5.530;2022-10-17T00:17:42;11.80;;;10.48;;
59788;SDS011;47353;51.614;5.530;2022-10-17T00:20:07;13.85;;;9.73;;
59788;SDS011;47353;51.614;5.530;2022-10-17T00:22:33;13.65;;;10.20;;
59788;SDS011;47353;51.614;5.530;2022-10-17T00:24:58;14.48;;;9.93;;
59788;SDS011;47353;51.614;5.530;2022-10-17T00:27:24;14.52;;;9.98;;
59788;SDS011;47353;51.614;5.530;2022-10-17T00:29:50;13.88;;;10.73;;
59788;SDS011;47353;51.614;5.530;2022-10-17T00:32:16;13.82;;;10.98;;
59788;SDS011;47353;51.614;5.530;2022-10-17T00:34:42;13.25;;;10.63;;
59788;SDS011;47353;51.614;5.530;2022-10-17T00:37:08;11.43;;;10.23;;
59788;SDS011;47353;51.614;5.530;2022-10-17T00:39:33;15.13;;;9.95;;
59788;SDS011;47353;51.614;5.530;2022-10-17T00:41:58;15.68;;;10.55;;
59788;SDS011;47353;51.614;5.530;2022-10-17T00:47:00;12.82;;;10.75;;
59788;SDS011;47353;51.614;5.530;2022-10-17T00:49:30;15.38;;;10.95;;
59788;SDS011;47353;51.614;5.530;2022-10-17T00:52:02;13.02;;;10.60;;
59788;SDS011;47353;51.614;5.530;2022-10-17T00:54:33;15.27;;;11.52;;
59788;SDS011;47353;51.614;5.530;2022-10-17T00:57:02;12.88;;;11.07;;
59788;SDS011;47353;51.614;5.530;2022-10-17T00:59:28;14.68;;;10.73;;
59788;SDS011;47353;51.614;5.530;2022-10-17T01:02:00;15.32;;;11.55;;
59788;SDS011;47353;51.614;5.530;2022-10-17T01:04:31;14.55;;;11.45;;
59788;SDS011;47353;51.614;5.530;2022-10-17T01:06:57;15.15;;;11.20;;
59788;SDS011;47353;51.614;5.530;2022-10-17T01:09:22;17.25;;;11.50;;
59788;SDS011;47353;51.614;5.530;2022-10-17T01:15:02;13.07;;;10.52;;
59788;SDS011;47353;51.614;5.530;2022-10-17T01:25:51;15.40;;;11.55;;
59788;SDS011;47353;51.614;5.530;2022-10-17T01:31:15;16.63;;;11.80;;
59788;SDS011;47353;51.614;5.530;2022-10-17T01:34:00;18.67;;;12.48;;
59788;SDS011;47353;51.614;5.530;2022-10-17T01:36:52;17.75;;;12.48;;
59788;SDS011;47353;51.614;5.530;2022-10-17T01:39:27;16.05;;;12.45;;
59788;SDS011;47353;51.614;5.530;2022-10-17T01:42:10;17.23;;;13.15;;
59788;SDS011;47353;51.614;5.530;2022-10-17T01:44:45;16.42;;;12.55;;
59788;SDS011;47353;51.614;5.530;2022-10-17T01:47:16;15.15;;;12.52;;
59788;SDS011;47353;51.614;5.530;2022-10-17T01:49:45;17.65;;;13.25;;
59788;SDS011;47353;51.614;5.530;2022-10-17T01:52:17;18.63;;;13.18;;
59788;SDS011;47353;51.614;5.530;2022-10-17T01:54:53;16.08;;;13.00;;
59788;SDS011;47353;51.614;5.530;2022-10-17T01:57:27;19.83;;;12.45;;
59788;SDS011;47353;51.614;5.530;2022-10-17T01:59:55;18.45;;;13.10;;
59788;SDS011;47353;51.614;5.530;2022-10-17T02:02:22;17.85;;;13.57;;
59788;SDS011;47353;51.614;5.530;2022-10-17T02:04:49;23.98;;;13.63;;
59788;SDS011;47353;51.614;5.530;2022-10-17T02:07:16;19.58;;;13.43;;
59788;SDS011;47353;51.614;5.530;2022-10-17T02:09:42;18.77;;;12.98;;
59788;SDS011;47353;51.614;5.530;2022-10-17T02:12:24;17.65;;;13.50;;
59788;SDS011;47353;51.614;5.530;2022-10-17T02:20:59;21.00;;;13.15;;
59788;SDS011;47353;51.614;5.530;2022-10-17T02:23:46;18.42;;;12.93;;
59788;SDS011;47353;51.614;5.530;2022-10-17T02:26:48;17.65;;;14.27;;
59788;SDS011;47353;51.614;5.530;2022-10-17T02:29:24;20.10;;;13.45;;
59788;SDS011;47353;51.614;5.530;2022-10-17T02:31:57;26.35;;;14.65;;
59788;SDS011;47353;51.614;5.530;2022-10-17T02:34:28;17.65;;;13.57;;
59788;SDS011;47353;51.614;5.530;2022-10-17T02:36:59;19.83;;;13.88;;
59788;SDS011;47353;51.614;5.530;2022-10-17T02:39:28;21.42;;;14.00;;
59788;SDS011;47353;51.614;5.530;2022-10-17T02:41:56;21.50;;;14.32;;
59788;SDS011;47353;51.614;5.530;2022-10-17T02:44:24;21.65;;;14.43;;
59788;SDS011;47353;51.614;5.530;2022-10-17T02:46:53;20.65;;;14.13;;
59788;SDS011;47353;51.614;5.530;2022-10-17T02:49:24;18.60;;;14.43;;
59788;SDS011;47353;51.614;5.530;2022-10-17T02:51:57;19.70;;;13.98;;
59788;SDS011;47353;51.614;5.530;2022-10-17T02:54:34;18.50;;;14.10;;
59788;SDS011;47353;51.614;5.530;2022-10-17T02:59:53;20.08;;;14.93;;
59788;SDS011;47353;51.614;5.530;2022-10-17T03:02:21;22.95;;;15.18;;
59788;SDS011;47353;51.614;5.530;2022-10-17T03:04:46;21.27;;;14.90;;
59788;SDS011;47353;51.614;5.530;2022-10-17T03:07:12;21.48;;;15.15;;
59788;SDS011;47353;51.614;5.530;2022-10-17T03:09:37;20.17;;;14.52;;
59788;SDS011;47353;51.614;5.530;2022-10-17T03:12:03;19.25;;;13.88;;
59788;SDS011;47353;51.614;5.530;2022-10-17T03:14:29;20.88;;;14.07;;
59788;SDS011;47353;51.614;5.530;2022-10-17T03:16:54;21.85;;;14.55;;
59788;SDS011;47353;51.614;5.530;2022-10-17T03:19:19;21.90;;;14.65;;
59788;SDS011;47353;51.614;5.530;2022-10-17T03:21:45;22.48;;;14.32;;
59788;SDS011;47353;51.614;5.530;2022-10-17T03:24:10;19.30;;;14.02;;
59788;SDS011;47353;51.614;5.530;2022-10-17T03:26:36;19.30;;;13.82;;
59788;SDS011;47353;51.614;5.530;2022-10-17T03:29:01;18.98;;;14.00;;
59788;SDS011;47353;51.614;5.530;2022-10-17T03:31:26;21.33;;;14.40;;
59788;SDS011;47353;51.614;5.530;2022-10-17T03:33:52;20.42;;;14.50;;
59788;SDS011;47353;51.614;5.530;2022-10-17T03:36:17;21.42;;;14.40;;
59788;SDS011;47353;51.614;5.530;2022-10-17T03:38:44;20.80;;;14.02;;
59788;SDS011;47353;51.614;5.530;2022-10-17T03:41:09;20.35;;;14.15;;
59788;SDS011;47353;51.614;5.530;2022-10-17T03:43:35;21.95;;;14.10;;
59788;SDS011;47353;51.614;5.530;2022-10-17T03:46:01;19.33;;;13.60;;
59788;SDS011;47353;51.614;5.530;2022-10-17T03:48:27;17.45;;;14.10;;
59788;SDS011;47353;51.614;5.530;2022-10-17T03:50:58;21.52;;;14.30;;
59788;SDS011;47353;51.614;5.530;2022-10-17T03:53:25;22.80;;;14.13;;
59788;SDS011;47353;51.614;5.530;2022-10-17T03:55:50;22.65;;;14.27;;
59788;SDS011;47353;51.614;5.530;2022-10-17T03:58:16;18.48;;;12.73;;
59788;SDS011;47353;51.614;5.530;2022-10-17T04:00:41;23.33;;;13.50;;
59788;SDS011;47353;51.614;5.530;2022-10-17T04:03:06;18.65;;;13.32;;
59788;SDS011;47353;51.614;5.530;2022-10-17T04:05:32;19.65;;;13.52;;
59788;SDS011;47353;51.614;5.530;2022-10-17T04:07:57;19.33;;;13.63;;
59788;SDS011;47353;51.614;5.530;2022-10-17T04:10:22;19.77;;;13.82;;
59788;SDS011;47353;51.614;5.530;2022-10-17T04:12:48;16.95;;;13.10;;
59788;SDS011;47353;51.614;5.530;2022-10-17T04:15:13;17.52;;;13.20;;
59788;SDS011;47353;51.614;5.530;2022-10-17T04:17:39;17.80;;;12.40;;
59788;SDS011;47353;51.614;5.530;2022-10-17T04:20:04;20.20;;;12.82;;
59788;SDS011;47353;51.614;5.530;2022-10-17T04:22:30;17.33;;;11.65;;
59788;SDS011;47353;51.614;5.530;2022-10-17T04:24:55;15.02;;;11.82;;
59788;SDS011;47353;51.614;5.530;2022-10-17T04:27:21;15.90;;;12.07;;
59788;SDS011;47353;51.614;5.530;2022-10-17T04:29:46;16.23;;;11.48;;
59788;SDS011;47353;51.614;5.530;2022-10-17T04:32:12;17.27;;;11.25;;
59788;SDS011;47353;51.614;5.530;2022-10-17T04:34:37;15.07;;;10.77;;
59788;SDS011;47353;51.614;5.530;2022-10-17T04:37:02;14.23;;;11.20;;
59788;SDS011;47353;51.614;5.530;2022-10-17T04:39:28;16.58;;;11.30;;
59788;SDS011;47353;51.614;5.530;2022-10-17T04:41:54;14.93;;;11.48;;
59788;SDS011;47353;51.614;5.530;2022-10-17T04:44:20;14.07;;;11.20;;
59788;SDS011;47353;51.614;5.530;2022-10-17T04:46:46;16.67;;;11.55;;
59788;SDS011;47353;51.614;5.530;2022-10-17T04:49:11;17.83;;;10.95;;
59788;SDS011;47353;51.614;5.530;2022-10-17T04:51:37;13.90;;;10.68;;
59788;SDS011;47353;51.614;5.530;2022-10-17T04:54:03;16.67;;;11.50;;
59788;SDS011;47353;51.614;5.530;2022-10-17T04:56:29;13.80;;;10.77;;
59788;SDS011;47353;51.614;5.530;2022-10-17T04:58:54;16.25;;;10.95;;
59788;SDS011;47353;51.614;5.530;2022-10-17T05:01:20;16.65;;;10.50;;
59788;SDS011;47353;51.614;5.530;2022-10-17T05:03:46;14.90;;;11.18;;
59788;SDS011;47353;51.614;5.530;2022-10-17T05:06:13;16.25;;;10.35;;
59788;SDS011;47353;51.614;5.530;2022-10-17T05:08:43;14.13;;;10.30;;
59788;SDS011;47353;51.614;5.530;2022-10-17T05:11:19;13.48;;;11.20;;
59788;SDS011;47353;51.614;5.530;2022-10-17T05:13:53;16.60;;;10.73;;
59788;SDS011;47353;51.614;5.530;2022-10-17T05:18:46;13.75;;;10.18;;
59788;SDS011;47353;51.614;5.530;2022-10-17T05:21:13;15.90;;;10.63;;
59788;SDS011;47353;51.614;5.530;2022-10-17T05:23:39;13.90;;;10.65;;
59788;SDS011;47353;51.614;5.530;2022-10-17T05:26:04;14.63;;;10.93;;
59788;SDS011;47353;51.614;5.530;2022-10-17T05:28:30;14.43;;;10.35;;
59788;SDS011;47353;51.614;5.530;2022-10-17T05:30:55;15.00;;;10.77;;
59788;SDS011;47353;51.614;5.530;2022-10-17T05:33:21;13.00;;;11.07;;
59788;SDS011;47353;51.614;5.530;2022-10-17T05:35:47;15.32;;;10.80;;
59788;SDS011;47353;51.614;5.530;2022-10-17T05:38:12;14.52;;;11.25;;
59788;SDS011;47353;51.614;5.530;2022-10-17T05:40:38;18.02;;;10.55;;
59788;SDS011;47353;51.614;5.530;2022-10-17T05:43:03;16.52;;;11.43;;
59788;SDS011;47353;51.614;5.530;2022-10-17T05:45:28;16.02;;;11.05;;
59788;SDS011;47353;51.614;5.530;2022-10-17T05:47:54;14.65;;;11.45;;
59788;SDS011;47353;51.614;5.530;2022-10-17T05:50:19;14.82;;;10.45;;
59788;SDS011;47353;51.614;5.530;2022-10-17T05:52:46;16.60;;;10.70;;
59788;SDS011;47353;51.614;5.530;2022-10-17T05:55:11;17.92;;;11.07;;
59788;SDS011;47353;51.614;5.530;2022-10-17T05:57:36;14.18;;;10.80;;
59788;SDS011;47353;51.614;5.530;2022-10-17T06:00:03;14.55;;;10.57;;
59788;SDS011;47353;51.614;5.530;2022-10-17T06:02:29;15.93;;;10.80;;
59788;SDS011;47353;51.614;5.530;2022-10-17T06:04:55;17.25;;;10.52;;
59788;SDS011;47353;51.614;5.530;2022-10-17T06:07:20;13.10;;;10.07;;
59788;SDS011;47353;51.614;5.530;2022-10-17T06:09:45;17.10;;;11.07;;
59788;SDS011;47353;51.614;5.530;2022-10-17T06:12:11;13.68;;;11.00;;
59788;SDS011;47353;51.614;5.530;2022-10-17T06:14:36;13.18;;;11.10;;
59788;SDS011;47353;51.614;5.530;2022-10-17T06:17:01;17.30;;;11.35;;
59788;SDS011;47353;51.614;5.530;2022-10-17T06:19:27;20.38;;;10.90;;
59788;SDS011;47353;51.614;5.530;2022-10-17T06:21:52;18.58;;;11.30;;
59788;SDS011;47353;51.614;5.530;2022-10-17T06:24:18;19.77;;;10.38;;
59788;SDS011;47353;51.614;5.530;2022-10-17T06:26:43;16.77;;;10.32;;
59788;SDS011;47353;51.614;5.530;2022-10-17T06:29:08;15.43;;;10.68;;
59788;SDS011;47353;51.614;5.530;2022-10-17T06:31:34;14.30;;;10.57;;
59788;SDS011;47353;51.614;5.530;2022-10-17T06:34:00;13.30;;;10.25;;
59788;SDS011;47353;51.614;5.530;2022-10-17T06:36:25;14.27;;;10.45;;
59788;SDS011;47353;51.614;5.530;2022-10-17T06:38:51;15.82;;;9.90;;
59788;SDS011;47353;51.614;5.530;2022-10-17T06:41:16;14.73;;;10.20;;
59788;SDS011;47353;51.614;5.530;2022-10-17T06:43:43;16.42;;;11.20;;
59788;SDS011;47353;51.614;5.530;2022-10-17T06:46:10;13.45;;;9.95;;
59788;SDS011;47353;51.614;5.530;2022-10-17T06:48:37;14.23;;;9.75;;
59788;SDS011;47353;51.614;5.530;2022-10-17T06:51:03;12.90;;;10.15;;
59788;SDS011;47353;51.614;5.530;2022-10-17T06:53:30;13.43;;;10.20;;
59788;SDS011;47353;51.614;5.530;2022-10-17T06:55:58;12.57;;;9.63;;
59788;SDS011;47353;51.614;5.530;2022-10-17T06:58:30;14.48;;;9.50;;
59788;SDS011;47353;51.614;5.530;2022-10-17T07:01:10;12.98;;;9.68;;
59788;SDS011;47353;51.614;5.530;2022-10-17T07:03:37;14.55;;;10.13;;
59788;SDS011;47353;51.614;5.530;2022-10-17T07:06:04;16.30;;;9.70;;
59788;SDS011;47353;51.614;5.530;2022-10-17T07:08:29;14.90;;;9.45;;
59788;SDS011;47353;51.614;5.530;2022-10-17T07:10:55;15.77;;;8.93;;
59788;SDS011;47353;51.614;5.530;2022-10-17T07:13:21;11.77;;;9.35;;
59788;SDS011;47353;51.614;5.530;2022-10-17T07:15:47;10.93;;;8.43;;
59788;SDS011;47353;51.614;5.530;2022-10-17T07:18:12;12.60;;;8.68;;
59788;SDS011;47353;51.614;5.530;2022-10-17T07:20:38;12.30;;;8.55;;
59788;SDS011;47353;51.614;5.530;2022-10-17T07:23:04;16.38;;;8.60;;
59788;SDS011;47353;51.614;5.530;2022-10-17T07:25:30;11.93;;;8.73;;
59788;SDS011;47353;51.614;5.530;2022-10-17T07:27:55;13.10;;;8.18;;
59788;SDS011;47353;51.614;5.530;2022-10-17T07:30:21;11.18;;;8.60;;
59788;SDS011;47353;51.614;5.530;2022-10-17T07:32:47;9.88;;;8.77;;
59788;SDS011;47353;51.614;5.530;2022-10-17T07:35:13;13.40;;;8.27;;
59788;SDS011;47353;51.614;5.530;2022-10-17T07:37:38;12.05;;;8.02;;
59788;SDS011;47353;51.614;5.530;2022-10-17T07:40:04;13.40;;;8.38;;
59788;SDS011;47353;51.614;5.530;2022-10-17T07:42:32;11.48;;;8.30;;
59788;SDS011;47353;51.614;5.530;2022-10-17T07:44:58;12.13;;;8.57;;
59788;SDS011;47353;51.614;5.530;2022-10-17T07:47:23;14.88;;;8.35;;
59788;SDS011;47353;51.614;5.530;2022-10-17T07:49:49;9.98;;;7.97;;
59788;SDS011;47353;51.614;5.530;2022-10-17T07:52:14;12.90;;;8.23;;
59788;SDS011;47353;51.614;5.530;2022-10-17T07:54:41;12.50;;;7.75;;
59788;SDS011;47353;51.614;5.530;2022-10-17T07:57:07;11.45;;;7.78;;
59788;SDS011;47353;51.614;5.530;2022-10-17T07:59:33;13.80;;;7.40;;
59788;SDS011;47353;51.614;5.530;2022-10-17T08:01:59;10.95;;;7.38;;
59788;SDS011;47353;51.614;5.530;2022-10-17T08:04:25;9.63;;;7.05;;
59788;SDS011;47353;51.614;5.530;2022-10-17T08:06:51;14.13;;;8.57;;
59788;SDS011;47353;51.614;5.530;2022-10-17T08:09:17;10.88;;;6.97;;
59788;SDS011;47353;51.614;5.530;2022-10-17T08:11:43;16.65;;;7.95;;
59788;SDS011;47353;51.614;5.530;2022-10-17T08:14:09;11.32;;;7.70;;
59788;SDS011;47353;51.614;5.530;2022-10-17T08:16:35;12.05;;;7.22;;
59788;SDS011;47353;51.614;5.530;2022-10-17T08:19:01;8.38;;;7.40;;
59788;SDS011;47353;51.614;5.530;2022-10-17T08:21:27;13.48;;;8.05;;
59788;SDS011;47353;51.614;5.530;2022-10-17T08:23:53;10.63;;;6.57;;
59788;SDS011;47353;51.614;5.530;2022-10-17T08:26:18;11.90;;;7.63;;
59788;SDS011;47353;51.614;5.530;2022-10-17T08:28:44;10.52;;;7.78;;
59788;SDS011;47353;51.614;5.530;2022-10-17T08:31:19;13.40;;;7.68;;
59788;SDS011;47353;51.614;5.530;2022-10-17T08:33:46;9.50;;;7.82;;
59788;SDS011;47353;51.614;5.530;2022-10-17T08:36:13;14.55;;;7.97;;
59788;SDS011;47353;51.614;5.530;2022-10-17T08:38:40;17.00;;;8.70;;
59788;SDS011;47353;51.614;5.530;2022-10-17T08:41:18;13.18;;;8.85;;
59788;SDS011;47353;51.614;5.530;2022-10-17T08:47:08;11.02;;;7.85;;
59788;SDS011;47353;51.614;5.530;2022-10-17T08:52:14;14.52;;;9.57;;
59788;SDS011;47353;51.614;5.530;2022-10-17T08:54:49;15.57;;;9.50;;
59788;SDS011;47353;51.614;5.530;2022-10-17T08:57:15;15.88;;;9.52;;
59788;SDS011;47353;51.614;5.530;2022-10-17T08:59:42;14.50;;;8.88;;
59788;SDS011;47353;51.614;5.530;2022-10-17T09:10:19;15.50;;;8.75;;
59788;SDS011;47353;51.614;5.530;2022-10-17T09:18:16;13.77;;;8.63;;
59788;SDS011;47353;51.614;5.530;2022-10-17T09:23:19;12.23;;;8.32;;
59788;SDS011;47353;51.614;5.530;2022-10-17T09:25:54;12.93;;;8.57;;
59788;SDS011;47353;51.614;5.530;2022-10-17T09:33:44;18.27;;;9.68;;
59788;SDS011;47353;51.614;5.530;2022-10-17T09:36:19;16.30;;;9.70;;
59788;SDS011;47353;51.614;5.530;2022-10-17T09:38:48;15.73;;;9.25;;
59788;SDS011;47353;51.614;5.530;2022-10-17T09:41:20;12.43;;;8.75;;
59788;SDS011;47353;51.614;5.530;2022-10-17T09:43:48;12.77;;;9.63;;
59788;SDS011;47353;51.614;5.530;2022-10-17T09:46:24;13.63;;;9.27;;
59788;SDS011;47353;51.614;5.530;2022-10-17T09:48:57;10.63;;;8.48;;
59788;SDS011;47353;51.614;5.530;2022-10-17T09:51:27;13.30;;;8.48;;
59788;SDS011;47353;51.614;5.530;2022-10-17T09:54:02;12.77;;;9.35;;
59788;SDS011;47353;51.614;5.530;2022-10-17T09:56:30;15.68;;;8.90;;
59788;SDS011;47353;51.614;5.530;2022-10-17T09:59:37;11.68;;;9.05;;
59788;SDS011;47353;51.614;5.530;2022-10-17T10:02:17;11.90;;;9.43;;
59788;SDS011;47353;51.614;5.530;2022-10-17T10:05:03;14.13;;;9.23;;
59788;SDS011;47353;51.614;5.530;2022-10-17T10:07:30;10.13;;;9.00;;
59788;SDS011;47353;51.614;5.530;2022-10-17T10:09:58;12.63;;;9.75;;
59788;SDS011;47353;51.614;5.530;2022-10-17T10:12:27;12.68;;;9.27;;
59788;SDS011;47353;51.614;5.530;2022-10-17T10:14:55;13.10;;;8.77;;
59788;SDS011;47353;51.614;5.530;2022-10-17T10:19:59;12.95;;;9.60;;
59788;SDS011;47353;51.614;5.530;2022-10-17T10:22:25;16.05;;;9.85;;
59788;SDS011;47353;51.614;5.530;2022-10-17T10:27:31;11.57;;;9.57;;
59788;SDS011;47353;51.614;5.530;2022-10-17T10:29:57;16.02;;;10.35;;
59788;SDS011;47353;51.614;5.530;2022-10-17T10:32:30;15.23;;;10.10;;
59788;SDS011;47353;51.614;5.530;2022-10-17T10:34:58;15.30;;;12.73;;
59788;SDS011;47353;51.614;5.530;2022-10-17T10:37:37;15.35;;;13.40;;
59788;SDS011;47353;51.614;5.530;2022-10-17T10:40:06;20.98;;;13.20;;
59788;SDS011;47353;51.614;5.530;2022-10-17T10:42:45;15.75;;;12.90;;
59788;SDS011;47353;51.614;5.530;2022-10-17T10:45:15;16.27;;;13.85;;
59788;SDS011;47353;51.614;5.530;2022-10-17T10:47:49;17.02;;;13.45;;
59788;SDS011;47353;51.614;5.530;2022-10-17T10:55:46;13.02;;;9.23;;
59788;SDS011;47353;51.614;5.530;2022-10-17T11:03:56;11.50;;;7.88;;
59788;SDS011;47353;51.614;5.530;2022-10-17T11:06:27;9.43;;;7.53;;
59788;SDS011;47353;51.614;5.530;2022-10-17T11:09:15;9.43;;;7.32;;
59788;SDS011;47353;51.614;5.530;2022-10-17T11:12:12;10.65;;;7.68;;
59788;SDS011;47353;51.614;5.530;2022-10-17T11:15:02;10.45;;;8.13;;
59788;SDS011;47353;51.614;5.530;2022-10-17T11:17:41;12.35;;;8.23;;
59788;SDS011;47353;51.614;5.530;2022-10-17T11:23:35;9.18;;;8.27;;
59788;SDS011;47353;51.614;5.530;2022-10-17T11:26:27;12.00;;;8.10;;
59788;SDS011;47353;51.614;5.530;2022-10-17T11:28:57;14.25;;;8.00;;
59788;SDS011;47353;51.614;5.530;2022-10-17T11:31:36;12.75;;;7.70;;
59788;SDS011;47353;51.614;5.530;2022-10-17T11:34:16;10.88;;;7.82;;
59788;SDS011;47353;51.614;5.530;2022-10-17T11:36:47;9.77;;;7.63;;
59788;SDS011;47353;51.614;5.530;2022-10-17T11:39:25;13.52;;;7.80;;
59788;SDS011;47353;51.614;5.530;2022-10-17T11:42:09;10.55;;;8.00;;
59788;SDS011;47353;51.614;5.530;2022-10-17T11:44:38;9.48;;;7.78;;
59788;SDS011;47353;51.614;5.530;2022-10-17T11:47:09;10.75;;;8.38;;
59788;SDS011;47353;51.614;5.530;2022-10-17T11:49:44;14.45;;;8.50;;
59788;SDS011;47353;51.614;5.530;2022-10-17T11:54:55;12.00;;;8.25;;
59788;SDS011;47353;51.614;5.530;2022-10-17T11:57:39;12.77;;;8.70;;
59788;SDS011;47353;51.614;5.530;2022-10-17T12:13:45;12.75;;;9.32;;
59788;SDS011;47353;51.614;5.530;2022-10-17T12:18:47;12.18;;;8.65;;
59788;SDS011;47353;51.614;5.530;2022-10-17T12:21:24;9.65;;;8.20;;
59788;SDS011;47353;51.614;5.530;2022-10-17T12:23:50;11.57;;;8.80;;
59788;SDS011;47353;51.614;5.530;2022-10-17T12:26:27;11.73;;;9.25;;
59788;SDS011;47353;51.614;5.530;2022-10-17T12:28:54;13.15;;;9.55;;
59788;SDS011;47353;51.614;5.530;2022-10-17T12:31:22;12.52;;;9.02;;
59788;SDS011;47353;51.614;5.530;2022-10-17T12:33:55;11.07;;;8.77;;
59788;SDS011;47353;51.614;5.530;2022-10-17T12:46:41;10.18;;;8.80;;
59788;SDS011;47353;51.614;5.530;2022-10-17T12:49:20;12.90;;;9.40;;
59788;SDS011;47353;51.614;5.530;2022-10-17T12:55:09;12.30;;;9.35;;
59788;SDS011;47353;51.614;5.530;2022-10-17T12:57:53;13.63;;;9.65;;
59788;SDS011;47353;51.614;5.530;2022-10-17T13:03:17;13.77;;;9.63;;
59788;SDS011;47353;51.614;5.530;2022-10-17T13:05:47;14.13;;;10.68;;
59788;SDS011;47353;51.614;5.530;2022-10-17T13:08:17;14.65;;;10.77;;
59788;SDS011;47353;51.614;5.530;2022-10-17T13:11:08;13.77;;;11.07;;
59788;SDS011;47353;51.614;5.530;2022-10-17T13:13:42;14.70;;;11.07;;
59788;SDS011;47353;51.614;5.530;2022-10-17T13:18:58;16.20;;;11.38;;
59788;SDS011;47353;51.614;5.530;2022-10-17T13:21:24;14.43;;;10.70;;
59788;SDS011;47353;51.614;5.530;2022-10-17T13:23:50;16.60;;;11.02;;
59788;SDS011;47353;51.614;5.530;2022-10-17T13:26:18;15.10;;;11.55;;
59788;SDS011;47353;51.614;5.530;2022-10-17T13:28:59;18.05;;;11.68;;
59788;SDS011;47353;51.614;5.530;2022-10-17T13:31:30;17.45;;;11.90;;
59788;SDS011;47353;51.614;5.530;2022-10-17T13:34:02;17.40;;;11.43;;
59788;SDS011;47353;51.614;5.530;2022-10-17T13:36:29;14.18;;;11.60;;
59788;SDS011;47353;51.614;5.530;2022-10-17T13:38:57;18.40;;;11.85;;
59788;SDS011;47353;51.614;5.530;2022-10-17T13:41:33;15.77;;;11.98;;
59788;SDS011;47353;51.614;5.530;2022-10-17T13:43:59;16.20;;;11.38;;
59788;SDS011;47353;51.614;5.530;2022-10-17T13:46:28;18.27;;;11.88;;
59788;SDS011;47353;51.614;5.530;2022-10-17T13:48:57;15.60;;;11.80;;
59788;SDS011;47353;51.614;5.530;2022-10-17T13:51:25;15.32;;;11.70;;
59788;SDS011;47353;51.614;5.530;2022-10-17T13:53:51;18.20;;;12.20;;
59788;SDS011;47353;51.614;5.530;2022-10-17T13:56:18;16.60;;;11.93;;
59788;SDS011;47353;51.614;5.530;2022-10-17T14:01:13;15.98;;;11.20;;
59788;SDS011;47353;51.614;5.530;2022-10-17T14:03:40;15.35;;;11.50;;
59788;SDS011;47353;51.614;5.530;2022-10-17T14:08:33;18.23;;;12.70;;
59788;SDS011;47353;51.614;5.530;2022-10-17T14:11:00;19.75;;;12.80;;
59788;SDS011;47353;51.614;5.530;2022-10-17T14:13:27;16.75;;;11.75;;
59788;SDS011;47353;51.614;5.530;2022-10-17T14:15:55;13.85;;;11.35;;
59788;SDS011;47353;51.614;5.530;2022-10-17T14:18:25;15.45;;;12.25;;
59788;SDS011;47353;51.614;5.530;2022-10-17T14:20:52;16.75;;;12.13;;
59788;SDS011;47353;51.614;5.530;2022-10-17T14:28:29;16.30;;;11.10;;
59788;SDS011;47353;51.614;5.530;2022-10-17T14:31:07;16.90;;;11.80;;
59788;SDS011;47353;51.614;5.530;2022-10-17T14:33:52;13.82;;;11.35;;
59788;SDS011;47353;51.614;5.530;2022-10-17T14:36:19;17.25;;;11.20;;
59788;SDS011;47353;51.614;5.530;2022-10-17T14:38:46;15.27;;;11.13;;
59788;SDS011;47353;51.614;5.530;2022-10-17T14:44:02;13.70;;;10.68;;
59788;SDS011;47353;51.614;5.530;2022-10-17T14:46:30;19.15;;;13.07;;
59788;SDS011;47353;51.614;5.530;2022-10-17T14:49:15;13.35;;;10.88;;
59788;SDS011;47353;51.614;5.530;2022-10-17T14:52:28;16.80;;;10.73;;
59788;SDS011;47353;51.614;5.530;2022-10-17T14:54:39;13.25;;;10.38;;
59788;SDS011;47353;51.614;5.530;2022-10-17T14:57:13;13.25;;;9.98;;
59788;SDS011;47353;51.614;5.530;2022-10-17T14:59:39;13.98;;;10.50;;
59788;SDS011;47353;51.614;5.530;2022-10-17T15:02:05;13.82;;;10.23;;
59788;SDS011;47353;51.614;5.530;2022-10-17T15:04:30;13.43;;;10.50;;
59788;SDS011;47353;51.614;5.530;2022-10-17T15:06:55;17.58;;;11.05;;
59788;SDS011;47353;51.614;5.530;2022-10-17T15:09:21;14.45;;;10.88;;
59788;SDS011;47353;51.614;5.530;2022-10-17T15:11:47;13.80;;;11.13;;
59788;SDS011;47353;51.614;5.530;2022-10-17T15:14:13;15.02;;;11.75;;
59788;SDS011;47353;51.614;5.530;2022-10-17T15:16:38;14.35;;;11.18;;
59788;SDS011;47353;51.614;5.530;2022-10-17T15:19:03;14.60;;;11.75;;
59788;SDS011;47353;51.614;5.530;2022-10-17T15:21:29;16.65;;;12.40;;
59788;SDS011;47353;51.614;5.530;2022-10-17T15:23:54;14.15;;;11.82;;
59788;SDS011;47353;51.614;5.530;2022-10-17T15:26:21;15.60;;;12.95;;
59788;SDS011;47353;51.614;5.530;2022-10-17T15:28:48;17.80;;;13.30;;
59788;SDS011;47353;51.614;5.530;2022-10-17T15:31:15;15.82;;;12.88;;
59788;SDS011;47353;51.614;5.530;2022-10-17T15:33:42;16.92;;;12.90;;
59788;SDS011;47353;51.614;5.530;2022-10-17T15:36:25;15.02;;;12.65;;
59788;SDS011;47353;51.614;5.530;2022-10-17T15:38:55;16.55;;;13.10;;
59788;SDS011;47353;51.614;5.530;2022-10-17T15:41:22;13.43;;;11.75;;
59788;SDS011;47353;51.614;5.530;2022-10-17T15:43:49;16.30;;;12.40;;
59788;SDS011;47353;51.614;5.530;2022-10-17T15:46:18;17.02;;;12.63;;
59788;SDS011;47353;51.614;5.530;2022-10-17T15:48:54;16.63;;;12.98;;
59788;SDS011;47353;51.614;5.530;2022-10-17T15:51:20;14.70;;;12.63;;
59788;SDS011;47353;51.614;5.530;2022-10-17T15:53:46;15.32;;;13.27;;
59788;SDS011;47353;51.614;5.530;2022-10-17T15:56:20;15.30;;;12.68;;
59788;SDS011;47353;51.614;5.530;2022-10-17T15:58:47;17.10;;;13.52;;
59788;SDS011;47353;51.614;5.530;2022-10-17T16:01:20;17.58;;;13.90;;
59788;SDS011;47353;51.614;5.530;2022-10-17T16:03:48;20.60;;;13.20;;
59788;SDS011;47353;51.614;5.530;2022-10-17T16:06:15;16.75;;;13.32;;
59788;SDS011;47353;51.614;5.530;2022-10-17T16:08:41;17.77;;;13.30;;
59788;SDS011;47353;51.614;5.530;2022-10-17T16:11:09;18.35;;;14.43;;
59788;SDS011;47353;51.614;5.530;2022-10-17T16:13:42;21.73;;;13.13;;
59788;SDS011;47353;51.614;5.530;2022-10-17T16:16:12;17.58;;;13.18;;
59788;SDS011;47353;51.614;5.530;2022-10-17T16:18:37;19.33;;;13.95;;
59788;SDS011;47353;51.614;5.530;2022-10-17T16:21:03;19.70;;;14.40;;
59788;SDS011;47353;51.614;5.530;2022-10-17T16:23:28;18.08;;;14.02;;
59788;SDS011;47353;51.614;5.530;2022-10-17T16:25:54;18.38;;;14.35;;
59788;SDS011;47353;51.614;5.530;2022-10-17T16:28:19;16.90;;;14.32;;
59788;SDS011;47353;51.614;5.530;2022-10-17T16:30:44;19.33;;;14.75;;
59788;SDS011;47353;51.614;5.530;2022-10-17T16:33:10;18.23;;;15.40;;
59788;SDS011;47353;51.614;5.530;2022-10-17T16:35:35;20.45;;;15.35;;
59788;SDS011;47353;51.614;5.530;2022-10-17T16:38:01;20.38;;;15.57;;
59788;SDS011;47353;51.614;5.530;2022-10-17T16:40:26;23.23;;;16.25;;
59788;SDS011;47353;51.614;5.530;2022-10-17T16:42:52;22.02;;;17.23;;